sensor_id;sensor_type;location;lat;lon;timestamp;temperature;humidity
11009;DHT22;5557;51.670;7.788;2023-04-10T00:00:35;5.30;33.50
11009;DHT22;5557;51.670;7.788;2023-04-10T00:03:04;5.20;33.30
11009;DHT22;5557;51.670;7.788;2023-04-10T00:05:31;5.20;36.00
11009;DHT22;5557;51.670;7.788;2023-04-10T00:07:59;5.20;37.00
11009;DHT22;5557;51.670;7.788;2023-04-10T00:10:28;5.20;37.90
11009;DHT22;5557;51.670;7.788;2023-04-10T00:12:57;5.20;37.90
11009;DHT22;5557;51.670;7.788;2023-04-10T00:15:26;5.20;39.40
11009;DHT22;5557;51.670;7.788;2023-04-10T00:17:54;5.20;41.30
11009;DHT22;5557;51.670;7.788;2023-04-10T00:20:22;5.20;41.70
11009;DHT22;5557;51.670;7.788;2023-04-10T00:22:49;5.20;42.60
11009;DHT22;5557;51.670;7.788;2023-04-10T00:25:16;5.20;42.90
11009;DHT22;5557;51.670;7.788;2023-04-10T00:27:43;5.10;43.10
11009;DHT22;5557;51.670;7.788;2023-04-10T00:30:10;5.10;44.40
11009;DHT22;5557;51.670;7.788;2023-04-10T00:32:37;5.10;44.30
11009;DHT22;5557;51.670;7.788;2023-04-10T00:35:06;5.10;45.00
11009;DHT22;5557;51.670;7.788;2023-04-10T00:37:33;5.00;45.60
11009;DHT22;5557;51.670;7.788;2023-04-10T00:40:00;5.00;47.80
11009;DHT22;5557;51.670;7.788;2023-04-10T00:42:27;4.90;49.30
11009;DHT22;5557;51.670;7.788;2023-04-10T00:44:54;4.90;50.60
11009;DHT22;5557;51.670;7.788;2023-04-10T00:47:22;4.90;52.20
11009;DHT22;5557;51.670;7.788;2023-04-10T00:49:49;4.90;52.50
11009;DHT22;5557;51.670;7.788;2023-04-10T00:52:16;4.80;52.90
11009;DHT22;5557;51.670;7.788;2023-04-10T00:54:43;4.80;56.80
11009;DHT22;5557;51.670;7.788;2023-04-10T00:57:10;4.80;57.50
11009;DHT22;5557;51.670;7.788;2023-04-10T00:59:38;4.80;56.80
11009;DHT22;5557;51.670;7.788;2023-04-10T01:02:05;4.70;56.60
11009;DHT22;5557;51.670;7.788;2023-04-10T01:04:32;4.70;58.40
11009;DHT22;5557;51.670;7.788;2023-04-10T01:10:19;4.70;62.20
11009;DHT22;5557;51.670;7.788;2023-04-10T01:16:30;4.60;64.60
11009;DHT22;5557;51.670;7.788;2023-04-10T01:19:10;4.60;65.20
11009;DHT22;5557;51.670;7.788;2023-04-10T01:21:41;4.60;65.70
11009;DHT22;5557;51.670;7.788;2023-04-10T01:30:34;4.60;65.20
11009;DHT22;5557;51.670;7.788;2023-04-10T01:33:03;4.50;68.20
11009;DHT22;5557;51.670;7.788;2023-04-10T01:35:34;4.50;67.00
11009;DHT22;5557;51.670;7.788;2023-04-10T01:38:04;4.50;67.00
11009;DHT22;5557;51.670;7.788;2023-04-10T01:40:33;4.50;68.40
11009;DHT22;5557;51.670;7.788;2023-04-10T01:43:05;4.50;68.00
11009;DHT22;5557;51.670;7.788;2023-04-10T01:45:33;4.50;68.50
11009;DHT22;5557;51.670;7.788;2023-04-10T01:48:11;4.50;68.60
11009;DHT22;5557;51.670;7.788;2023-04-10T01:50:51;4.60;69.20
11009;DHT22;5557;51.670;7.788;2023-04-10T01:53:20;4.60;69.20
11009;DHT22;5557;51.670;7.788;2023-04-10T01:55:49;4.60;69.20
11009;DHT22;5557;51.670;7.788;2023-04-10T01:58:16;4.60;68.10
11009;DHT22;5557;51.670;7.788;2023-04-10T02:00:44;4.60;68.50
11009;DHT22;5557;51.670;7.788;2023-04-10T02:03:11;4.60;68.90
11009;DHT22;5557;51.670;7.788;2023-04-10T02:07:19;4.60;69.40
11009;DHT22;5557;51.670;7.788;2023-04-10T02:09:03;4.60;68.20
11009;DHT22;5557;51.670;7.788;2023-04-10T02:12:04;4.60;66.10
11009;DHT22;5557;51.670;7.788;2023-04-10T02:14:35;4.60;64.60
11009;DHT22;5557;51.670;7.788;2023-04-10T02:17:05;4.60;65.00
11009;DHT22;5557;51.670;7.788;2023-04-10T02:19:32;4.60;66.50
11009;DHT22;5557;51.670;7.788;2023-04-10T02:22:00;4.60;65.50
11009;DHT22;5557;51.670;7.788;2023-04-10T02:24:27;4.60;65.90
11009;DHT22;5557;51.670;7.788;2023-04-10T02:26:54;4.50;65.90
11009;DHT22;5557;51.670;7.788;2023-04-10T02:29:22;4.50;65.50
11009;DHT22;5557;51.670;7.788;2023-04-10T02:31:49;4.50;66.70
11009;DHT22;5557;51.670;7.788;2023-04-10T02:34:18;4.60;66.50
11009;DHT22;5557;51.670;7.788;2023-04-10T02:36:48;4.50;66.10
11009;DHT22;5557;51.670;7.788;2023-04-10T02:39:19;4.50;66.20
11009;DHT22;5557;51.670;7.788;2023-04-10T02:41:47;4.40;66.10
11009;DHT22;5557;51.670;7.788;2023-04-10T02:44:14;4.40;66.50
11009;DHT22;5557;51.670;7.788;2023-04-10T02:46:41;4.40;68.00
11009;DHT22;5557;51.670;7.788;2023-04-10T02:49:08;4.30;68.70
11009;DHT22;5557;51.670;7.788;2023-04-10T02:51:35;4.30;69.00
11009;DHT22;5557;51.670;7.788;2023-04-10T02:54:05;4.20;72.10
11009;DHT22;5557;51.670;7.788;2023-04-10T02:56:35;4.30;73.10
11009;DHT22;5557;51.670;7.788;2023-04-10T02:59:02;4.30;75.30
11009;DHT22;5557;51.670;7.788;2023-04-10T03:01:34;4.30;74.80
11009;DHT22;5557;51.670;7.788;2023-04-10T03:04:03;4.30;74.50
11009;DHT22;5557;51.670;7.788;2023-04-10T03:06:32;4.30;74.30
11009;DHT22;5557;51.670;7.788;2023-04-10T03:08:59;4.30;71.90
11009;DHT22;5557;51.670;7.788;2023-04-10T03:11:29;4.30;72.40
11009;DHT22;5557;51.670;7.788;2023-04-10T03:13:56;4.30;71.50
11009;DHT22;5557;51.670;7.788;2023-04-10T03:16:28;4.30;71.50
11009;DHT22;5557;51.670;7.788;2023-04-10T03:18:55;4.30;70.10
11009;DHT22;5557;51.670;7.788;2023-04-10T03:21:26;4.30;69.20
11009;DHT22;5557;51.670;7.788;2023-04-10T03:23:56;4.30;69.00
11009;DHT22;5557;51.670;7.788;2023-04-10T03:26:23;4.20;70.70
11009;DHT22;5557;51.670;7.788;2023-04-10T03:28:53;4.20;71.40
11009;DHT22;5557;51.670;7.788;2023-04-10T03:31:20;4.20;71.40
11009;DHT22;5557;51.670;7.788;2023-04-10T03:33:50;4.20;71.40
11009;DHT22;5557;51.670;7.788;2023-04-10T03:36:17;4.20;71.00
11009;DHT22;5557;51.670;7.788;2023-04-10T03:38:46;4.20;71.20
11009;DHT22;5557;51.670;7.788;2023-04-10T03:41:16;4.10;71.20
11009;DHT22;5557;51.670;7.788;2023-04-10T03:43:45;4.10;72.90
11009;DHT22;5557;51.670;7.788;2023-04-10T03:46:12;4.20;73.00
11009;DHT22;5557;51.670;7.788;2023-04-10T03:48:42;4.20;73.00
11009;DHT22;5557;51.670;7.788;2023-04-10T03:51:09;4.20;72.80
11009;DHT22;5557;51.670;7.788;2023-04-10T03:53:40;4.20;72.30
11009;DHT22;5557;51.670;7.788;2023-04-10T03:56:07;4.30;69.60
11009;DHT22;5557;51.670;7.788;2023-04-10T03:58:34;4.30;67.80
11009;DHT22;5557;51.670;7.788;2023-04-10T04:01:01;4.20;66.70
11009;DHT22;5557;51.670;7.788;2023-04-10T04:03:28;4.20;66.80
11009;DHT22;5557;51.670;7.788;2023-04-10T04:05:55;4.20;66.60
11009;DHT22;5557;51.670;7.788;2023-04-10T04:08:22;4.20;66.60
11009;DHT22;5557;51.670;7.788;2023-04-10T04:10:49;4.20;66.40
11009;DHT22;5557;51.670;7.788;2023-04-10T04:13:16;4.10;66.50
11009;DHT22;5557;51.670;7.788;2023-04-10T04:15:43;4.10;67.30
11009;DHT22;5557;51.670;7.788;2023-04-10T04:18:10;4.10;67.60
11009;DHT22;5557;51.670;7.788;2023-04-10T04:20:37;4.20;66.60
11009;DHT22;5557;51.670;7.788;2023-04-10T04:23:05;4.20;65.00
11009;DHT22;5557;51.670;7.788;2023-04-10T04:25:32;4.20;64.10
11009;DHT22;5557;51.670;7.788;2023-04-10T04:27:59;4.20;64.00
11009;DHT22;5557;51.670;7.788;2023-04-10T04:30:27;4.10;64.40
11009;DHT22;5557;51.670;7.788;2023-04-10T04:32:54;4.10;66.40
11009;DHT22;5557;51.670;7.788;2023-04-10T04:35:21;4.20;65.80
11009;DHT22;5557;51.670;7.788;2023-04-10T04:37:49;4.20;65.00
11009;DHT22;5557;51.670;7.788;2023-04-10T04:40:16;4.20;65.10
11009;DHT22;5557;51.670;7.788;2023-04-10T04:42:43;4.20;65.90
11009;DHT22;5557;51.670;7.788;2023-04-10T04:45:10;4.20;63.80
11009;DHT22;5557;51.670;7.788;2023-04-10T04:47:37;4.20;62.30
11009;DHT22;5557;51.670;7.788;2023-04-10T04:50:05;4.10;61.80
11009;DHT22;5557;51.670;7.788;2023-04-10T04:52:32;4.00;61.70
11009;DHT22;5557;51.670;7.788;2023-04-10T04:55:00;4.10;66.40
11009;DHT22;5557;51.670;7.788;2023-04-10T04:57:27;4.20;68.60
11009;DHT22;5557;51.670;7.788;2023-04-10T04:59:54;4.40;65.80
11009;DHT22;5557;51.670;7.788;2023-04-10T05:02:21;4.50;62.60
11009;DHT22;5557;51.670;7.788;2023-04-10T05:04:48;4.60;58.20
11009;DHT22;5557;51.670;7.788;2023-04-10T05:07:16;4.80;52.60
11009;DHT22;5557;51.670;7.788;2023-04-10T05:09:42;5.00;47.10
11009;DHT22;5557;51.670;7.788;2023-04-10T05:12:09;5.00;42.40
11009;DHT22;5557;51.670;7.788;2023-04-10T05:14:36;5.10;41.90
11009;DHT22;5557;51.670;7.788;2023-04-10T05:17:03;5.20;39.30
11009;DHT22;5557;51.670;7.788;2023-04-10T05:19:31;5.30;36.70
11009;DHT22;5557;51.670;7.788;2023-04-10T05:21:58;5.50;33.70
11009;DHT22;5557;51.670;7.788;2023-04-10T05:24:24;5.60;28.60
11009;DHT22;5557;51.670;7.788;2023-04-10T05:26:51;5.70;26.60
11009;DHT22;5557;51.670;7.788;2023-04-10T05:29:18;5.80;25.50
11009;DHT22;5557;51.670;7.788;2023-04-10T05:31:46;5.90;23.40
11009;DHT22;5557;51.670;7.788;2023-04-10T05:34:13;5.90;22.50
11009;DHT22;5557;51.670;7.788;2023-04-10T05:36:39;6.00;21.30
11009;DHT22;5557;51.670;7.788;2023-04-10T05:39:07;6.00;20.50
11009;DHT22;5557;51.670;7.788;2023-04-10T05:41:34;6.10;20.30
11009;DHT22;5557;51.670;7.788;2023-04-10T05:44:01;6.30;17.80
11009;DHT22;5557;51.670;7.788;2023-04-10T05:46:28;6.50;17.40
11009;DHT22;5557;51.670;7.788;2023-04-10T05:48:55;6.70;14.60
11009;DHT22;5557;51.670;7.788;2023-04-10T05:51:22;6.80;10.90
11009;DHT22;5557;51.670;7.788;2023-04-10T05:53:50;6.80;9.10
11009;DHT22;5557;51.670;7.788;2023-04-10T05:56:17;6.90;8.30
11009;DHT22;5557;51.670;7.788;2023-04-10T05:58:44;6.90;7.80
11009;DHT22;5557;51.670;7.788;2023-04-10T06:01:10;7.10;7.90
11009;DHT22;5557;51.670;7.788;2023-04-10T06:03:39;7.30;6.50
11009;DHT22;5557;51.670;7.788;2023-04-10T06:06:06;7.60;3.00
11009;DHT22;5557;51.670;7.788;2023-04-10T06:08:33;7.60;1.80
11009;DHT22;5557;51.670;7.788;2023-04-10T06:11:00;7.50;1.70
11009;DHT22;5557;51.670;7.788;2023-04-10T06:13:27;7.40;2.70
11009;DHT22;5557;51.670;7.788;2023-04-10T06:15:54;7.40;1.90
11009;DHT22;5557;51.670;7.788;2023-04-10T06:18:21;7.30;2.90
11009;DHT22;5557;51.670;7.788;2023-04-10T06:20:48;7.40;2.10
11009;DHT22;5557;51.670;7.788;2023-04-10T06:23:15;7.50;2.90
11009;DHT22;5557;51.670;7.788;2023-04-10T06:25:42;7.60;1.00
11009;DHT22;5557;51.670;7.788;2023-04-10T06:28:09;7.70;1.00
11009;DHT22;5557;51.670;7.788;2023-04-10T06:30:36;7.90;1.00
11009;DHT22;5557;51.670;7.788;2023-04-10T06:33:04;8.10;1.00
11009;DHT22;5557;51.670;7.788;2023-04-10T06:35:31;8.40;1.00
11009;DHT22;5557;51.670;7.788;2023-04-10T06:37:58;8.60;1.00
11009;DHT22;5557;51.670;7.788;2023-04-10T06:40:25;8.80;1.00
11009;DHT22;5557;51.670;7.788;2023-04-10T06:42:55;9.10;1.00
11009;DHT22;5557;51.670;7.788;2023-04-10T06:45:22;9.30;1.00
11009;DHT22;5557;51.670;7.788;2023-04-10T06:47:49;9.60;1.00
11009;DHT22;5557;51.670;7.788;2023-04-10T06:50:16;9.90;1.00
11009;DHT22;5557;51.670;7.788;2023-04-10T06:52:44;10.40;1.00
11009;DHT22;5557;51.670;7.788;2023-04-10T06:55:11;10.80;1.00
11009;DHT22;5557;51.670;7.788;2023-04-10T06:57:39;11.10;1.00
11009;DHT22;5557;51.670;7.788;2023-04-10T07:00:07;11.40;1.00
11009;DHT22;5557;51.670;7.788;2023-04-10T07:02:35;11.70;1.00
11009;DHT22;5557;51.670;7.788;2023-04-10T07:05:02;11.80;1.00
11009;DHT22;5557;51.670;7.788;2023-04-10T07:07:29;12.00;1.00
11009;DHT22;5557;51.670;7.788;2023-04-10T07:09:57;12.20;1.00
11009;DHT22;5557;51.670;7.788;2023-04-10T07:12:24;12.30;1.00
11009;DHT22;5557;51.670;7.788;2023-04-10T07:14:52;12.00;1.00
11009;DHT22;5557;51.670;7.788;2023-04-10T07:17:19;12.20;1.00
11009;DHT22;5557;51.670;7.788;2023-04-10T07:19:46;12.30;1.00
11009;DHT22;5557;51.670;7.788;2023-04-10T07:22:13;12.50;1.00
11009;DHT22;5557;51.670;7.788;2023-04-10T07:24:41;13.10;1.00
11009;DHT22;5557;51.670;7.788;2023-04-10T07:27:08;13.40;1.00
11009;DHT22;5557;51.670;7.788;2023-04-10T07:29:35;13.60;1.00
11009;DHT22;5557;51.670;7.788;2023-04-10T07:32:03;13.70;1.00
11009;DHT22;5557;51.670;7.788;2023-04-10T07:34:30;14.20;1.00
11009;DHT22;5557;51.670;7.788;2023-04-10T07:36:58;14.70;1.00
11009;DHT22;5557;51.670;7.788;2023-04-10T07:39:25;15.20;1.00
11009;DHT22;5557;51.670;7.788;2023-04-10T07:41:52;15.10;1.00
11009;DHT22;5557;51.670;7.788;2023-04-10T07:44:22;15.10;1.00
11009;DHT22;5557;51.670;7.788;2023-04-10T07:46:49;15.40;1.00
11009;DHT22;5557;51.670;7.788;2023-04-10T07:49:17;15.50;1.00
11009;DHT22;5557;51.670;7.788;2023-04-10T07:51:45;15.60;1.00
11009;DHT22;5557;51.670;7.788;2023-04-10T07:54:12;15.80;1.00
11009;DHT22;5557;51.670;7.788;2023-04-10T07:56:39;15.90;1.00
11009;DHT22;5557;51.670;7.788;2023-04-10T07:59:06;16.10;1.00
11009;DHT22;5557;51.670;7.788;2023-04-10T08:01:33;15.80;1.00
11009;DHT22;5557;51.670;7.788;2023-04-10T08:04:01;16.20;1.00
11009;DHT22;5557;51.670;7.788;2023-04-10T08:06:31;16.00;1.00
11009;DHT22;5557;51.670;7.788;2023-04-10T08:08:58;16.00;1.00
11009;DHT22;5557;51.670;7.788;2023-04-10T08:11:32;16.50;1.00
11009;DHT22;5557;51.670;7.788;2023-04-10T08:14:03;16.70;1.00
11009;DHT22;5557;51.670;7.788;2023-04-10T08:16:34;16.50;1.00
11009;DHT22;5557;51.670;7.788;2023-04-10T08:19:02;16.10;1.00
11009;DHT22;5557;51.670;7.788;2023-04-10T08:21:32;16.50;1.00
11009;DHT22;5557;51.670;7.788;2023-04-10T08:24:01;16.80;1.00
11009;DHT22;5557;51.670;7.788;2023-04-10T08:26:29;16.50;1.00
11009;DHT22;5557;51.670;7.788;2023-04-10T08:28:58;16.70;1.00
11009;DHT22;5557;51.670;7.788;2023-04-10T08:31:26;16.40;1.00
11009;DHT22;5557;51.670;7.788;2023-04-10T08:33:57;16.30;1.00
11009;DHT22;5557;51.670;7.788;2023-04-10T08:36:26;16.20;1.00
11009;DHT22;5557;51.670;7.788;2023-04-10T08:38:53;16.00;1.00
11009;DHT22;5557;51.670;7.788;2023-04-10T08:41:20;16.00;1.00
11009;DHT22;5557;51.670;7.788;2023-04-10T08:43:49;16.20;1.00
11009;DHT22;5557;51.670;7.788;2023-04-10T08:46:17;16.40;1.00
11009;DHT22;5557;51.670;7.788;2023-04-10T08:49:01;15.80;1.00
11009;DHT22;5557;51.670;7.788;2023-04-10T08:51:42;15.80;1.00
11009;DHT22;5557;51.670;7.788;2023-04-10T08:54:13;16.10;1.00
11009;DHT22;5557;51.670;7.788;2023-04-10T08:56:47;16.60;1.00
11009;DHT22;5557;51.670;7.788;2023-04-10T08:59:16;17.10;1.00
11009;DHT22;5557;51.670;7.788;2023-04-10T09:01:44;17.70;1.00
11009;DHT22;5557;51.670;7.788;2023-04-10T09:04:12;18.20;1.00
11009;DHT22;5557;51.670;7.788;2023-04-10T09:06:41;18.50;1.00
11009;DHT22;5557;51.670;7.788;2023-04-10T09:09:08;18.30;1.00
11009;DHT22;5557;51.670;7.788;2023-04-10T09:12:11;19.10;1.00
11009;DHT22;5557;51.670;7.788;2023-04-10T09:14:40;20.10;1.00
11009;DHT22;5557;51.670;7.788;2023-04-10T09:17:33;20.50;1.00
11009;DHT22;5557;51.670;7.788;2023-04-10T09:20:00;20.80;1.00
11009;DHT22;5557;51.670;7.788;2023-04-10T09:22:33;20.30;1.00
11009;DHT22;5557;51.670;7.788;2023-04-10T09:25:02;20.20;1.00
11009;DHT22;5557;51.670;7.788;2023-04-10T09:27:31;20.60;1.00
11009;DHT22;5557;51.670;7.788;2023-04-10T09:29:58;21.20;1.00
11009;DHT22;5557;51.670;7.788;2023-04-10T09:32:42;20.90;1.00
11009;DHT22;5557;51.670;7.788;2023-04-10T09:35:11;20.60;1.00
11009;DHT22;5557;51.670;7.788;2023-04-10T09:37:40;20.20;1.00
11009;DHT22;5557;51.670;7.788;2023-04-10T09:40:28;19.70;1.00
11009;DHT22;5557;51.670;7.788;2023-04-10T09:42:55;19.90;1.00
11009;DHT22;5557;51.670;7.788;2023-04-10T09:45:23;19.60;1.00
11009;DHT22;5557;51.670;7.788;2023-04-10T09:48:06;19.40;1.00
11009;DHT22;5557;51.670;7.788;2023-04-10T09:50:39;18.60;1.00
11009;DHT22;5557;51.670;7.788;2023-04-10T09:53:15;18.70;1.00
11009;DHT22;5557;51.670;7.788;2023-04-10T09:55:42;18.80;1.00
11009;DHT22;5557;51.670;7.788;2023-04-10T09:58:10;19.00;1.00
11009;DHT22;5557;51.670;7.788;2023-04-10T10:00:47;18.90;1.00
11009;DHT22;5557;51.670;7.788;2023-04-10T10:03:17;18.70;1.00
11009;DHT22;5557;51.670;7.788;2023-04-10T10:05:49;18.50;1.00
11009;DHT22;5557;51.670;7.788;2023-04-10T10:08:16;18.70;1.00
11009;DHT22;5557;51.670;7.788;2023-04-10T10:10:48;18.80;1.00
11009;DHT22;5557;51.670;7.788;2023-04-10T10:16:18;19.30;1.00
11009;DHT22;5557;51.670;7.788;2023-04-10T10:19:05;19.40;1.00
11009;DHT22;5557;51.670;7.788;2023-04-10T10:21:35;19.90;1.00
11009;DHT22;5557;51.670;7.788;2023-04-10T10:24:07;20.00;1.00
11009;DHT22;5557;51.670;7.788;2023-04-10T10:26:37;20.10;1.00
11009;DHT22;5557;51.670;7.788;2023-04-10T10:29:06;19.80;1.00
11009;DHT22;5557;51.670;7.788;2023-04-10T10:31:40;19.20;1.00
11009;DHT22;5557;51.670;7.788;2023-04-10T10:34:08;19.00;1.00
11009;DHT22;5557;51.670;7.788;2023-04-10T10:36:39;19.20;1.00
11009;DHT22;5557;51.670;7.788;2023-04-10T10:43:23;19.30;1.00
11009;DHT22;5557;51.670;7.788;2023-04-10T10:46:36;19.20;1.00
11009;DHT22;5557;51.670;7.788;2023-04-10T10:49:01;18.90;1.00
11009;DHT22;5557;51.670;7.788;2023-04-10T10:51:51;18.60;1.00
11009;DHT22;5557;51.670;7.788;2023-04-10T10:54:34;18.80;1.00
11009;DHT22;5557;51.670;7.788;2023-04-10T10:57:45;19.10;1.00
11009;DHT22;5557;51.670;7.788;2023-04-10T11:00:20;18.80;1.00
11009;DHT22;5557;51.670;7.788;2023-04-10T11:05:57;18.60;1.00
11009;DHT22;5557;51.670;7.788;2023-04-10T11:08:48;18.30;1.00
11009;DHT22;5557;51.670;7.788;2023-04-10T11:11:23;18.20;1.00
11009;DHT22;5557;51.670;7.788;2023-04-10T11:16:40;18.30;1.00
11009;DHT22;5557;51.670;7.788;2023-04-10T11:19:12;18.50;1.00
11009;DHT22;5557;51.670;7.788;2023-04-10T11:22:04;18.50;1.00
11009;DHT22;5557;51.670;7.788;2023-04-10T11:24:55;18.50;1.00
11009;DHT22;5557;51.670;7.788;2023-04-10T11:30:30;19.10;1.00
11009;DHT22;5557;51.670;7.788;2023-04-10T11:32:59;19.10;1.00
11009;DHT22;5557;51.670;7.788;2023-04-10T11:35:26;19.20;1.00
11009;DHT22;5557;51.670;7.788;2023-04-10T11:38:15;19.10;1.00
11009;DHT22;5557;51.670;7.788;2023-04-10T11:40:55;19.00;1.00
11009;DHT22;5557;51.670;7.788;2023-04-10T11:43:22;18.90;1.00
11009;DHT22;5557;51.670;7.788;2023-04-10T11:45:50;18.70;1.00
11009;DHT22;5557;51.670;7.788;2023-04-10T11:48:25;19.00;1.00
11009;DHT22;5557;51.670;7.788;2023-04-10T11:50:55;19.20;1.00
11009;DHT22;5557;51.670;7.788;2023-04-10T11:53:24;18.90;1.00
11009;DHT22;5557;51.670;7.788;2023-04-10T11:55:52;18.90;1.00
11009;DHT22;5557;51.670;7.788;2023-04-10T11:58:24;19.20;1.00
11009;DHT22;5557;51.670;7.788;2023-04-10T12:01:00;19.50;1.00
11009;DHT22;5557;51.670;7.788;2023-04-10T12:03:38;19.50;1.00
11009;DHT22;5557;51.670;7.788;2023-04-10T12:06:11;19.80;1.00
11009;DHT22;5557;51.670;7.788;2023-04-10T12:08:41;18.90;1.00
11009;DHT22;5557;51.670;7.788;2023-04-10T12:11:11;18.80;1.00
11009;DHT22;5557;51.670;7.788;2023-04-10T12:13:39;19.00;1.00
11009;DHT22;5557;51.670;7.788;2023-04-10T12:16:07;19.10;1.00
11009;DHT22;5557;51.670;7.788;2023-04-10T12:18:35;18.80;1.00
11009;DHT22;5557;51.670;7.788;2023-04-10T12:21:04;18.50;1.00
11009;DHT22;5557;51.670;7.788;2023-04-10T12:23:36;18.50;1.00
11009;DHT22;5557;51.670;7.788;2023-04-10T12:26:10;18.80;1.00
11009;DHT22;5557;51.670;7.788;2023-04-10T12:28:39;19.00;1.00
11009;DHT22;5557;51.670;7.788;2023-04-10T12:31:06;19.20;1.00
11009;DHT22;5557;51.670;7.788;2023-04-10T12:33:35;19.20;1.00
11009;DHT22;5557;51.670;7.788;2023-04-10T12:36:03;19.20;1.00
11009;DHT22;5557;51.670;7.788;2023-04-10T12:38:38;19.30;1.00
11009;DHT22;5557;51.670;7.788;2023-04-10T12:41:08;19.30;1.00
11009;DHT22;5557;51.670;7.788;2023-04-10T12:43:41;19.10;1.00
11009;DHT22;5557;51.670;7.788;2023-04-10T12:46:09;19.30;1.00
11009;DHT22;5557;51.670;7.788;2023-04-10T12:48:40;19.30;1.00
11009;DHT22;5557;51.670;7.788;2023-04-10T12:51:07;19.00;1.00
11009;DHT22;5557;51.670;7.788;2023-04-10T12:53:45;18.80;1.00
11009;DHT22;5557;51.670;7.788;2023-04-10T12:56:12;18.90;1.00
11009;DHT22;5557;51.670;7.788;2023-04-10T12:58:43;18.60;1.00
11009;DHT22;5557;51.670;7.788;2023-04-10T13:01:10;19.00;1.00
11009;DHT22;5557;51.670;7.788;2023-04-10T13:03:37;19.10;1.00
11009;DHT22;5557;51.670;7.788;2023-04-10T13:06:07;19.20;1.00
11009;DHT22;5557;51.670;7.788;2023-04-10T13:08:34;19.40;1.00
11009;DHT22;5557;51.670;7.788;2023-04-10T13:11:01;19.40;1.00
11009;DHT22;5557;51.670;7.788;2023-04-10T13:13:29;19.40;1.00
11009;DHT22;5557;51.670;7.788;2023-04-10T13:15:59;19.10;1.00
11009;DHT22;5557;51.670;7.788;2023-04-10T13:18:28;18.80;1.00
11009;DHT22;5557;51.670;7.788;2023-04-10T13:20:55;18.70;1.00
11009;DHT22;5557;51.670;7.788;2023-04-10T13:23:22;18.80;1.00
11009;DHT22;5557;51.670;7.788;2023-04-10T13:25:50;19.00;1.00
11009;DHT22;5557;51.670;7.788;2023-04-10T13:28:16;19.20;1.00
11009;DHT22;5557;51.670;7.788;2023-04-10T13:30:44;19.20;1.00
11009;DHT22;5557;51.670;7.788;2023-04-10T13:33:12;19.40;1.00
11009;DHT22;5557;51.670;7.788;2023-04-10T13:35:39;19.60;1.00
11009;DHT22;5557;51.670;7.788;2023-04-10T13:38:10;19.70;1.00
11009;DHT22;5557;51.670;7.788;2023-04-10T13:40:38;19.50;1.00
11009;DHT22;5557;51.670;7.788;2023-04-10T13:43:05;19.30;1.00
11009;DHT22;5557;51.670;7.788;2023-04-10T13:45:32;19.20;1.00
11009;DHT22;5557;51.670;7.788;2023-04-10T13:48:00;19.10;1.00
11009;DHT22;5557;51.670;7.788;2023-04-10T13:50:28;19.10;1.00
11009;DHT22;5557;51.670;7.788;2023-04-10T13:52:55;19.10;1.00
11009;DHT22;5557;51.670;7.788;2023-04-10T13:55:22;19.20;1.00
11009;DHT22;5557;51.670;7.788;2023-04-10T13:57:49;19.20;1.00
11009;DHT22;5557;51.670;7.788;2023-04-10T14:00:17;19.20;1.00
11009;DHT22;5557;51.670;7.788;2023-04-10T14:02:44;19.00;1.00
11009;DHT22;5557;51.670;7.788;2023-04-10T14:05:11;18.90;1.00
11009;DHT22;5557;51.670;7.788;2023-04-10T14:07:38;19.00;1.00
11009;DHT22;5557;51.670;7.788;2023-04-10T14:10:06;18.90;1.00
11009;DHT22;5557;51.670;7.788;2023-04-10T14:12:35;18.90;1.00
11009;DHT22;5557;51.670;7.788;2023-04-10T14:15:04;18.80;1.00
11009;DHT22;5557;51.670;7.788;2023-04-10T14:17:31;18.80;1.00
11009;DHT22;5557;51.670;7.788;2023-04-10T14:19:58;18.80;1.00
11009;DHT22;5557;51.670;7.788;2023-04-10T14:22:25;18.90;1.00
11009;DHT22;5557;51.670;7.788;2023-04-10T14:24:52;18.90;1.00
11009;DHT22;5557;51.670;7.788;2023-04-10T14:27:40;18.90;1.00
11009;DHT22;5557;51.670;7.788;2023-04-10T14:30:09;18.80;1.00
11009;DHT22;5557;51.670;7.788;2023-04-10T14:32:40;19.00;1.00
11009;DHT22;5557;51.670;7.788;2023-04-10T14:35:11;19.10;1.00
11009;DHT22;5557;51.670;7.788;2023-04-10T14:37:43;19.20;1.00
11009;DHT22;5557;51.670;7.788;2023-04-10T14:40:12;19.20;1.00
11009;DHT22;5557;51.670;7.788;2023-04-10T14:42:40;19.20;1.00
11009;DHT22;5557;51.670;7.788;2023-04-10T14:45:08;19.30;1.00
11009;DHT22;5557;51.670;7.788;2023-04-10T14:47:35;19.30;1.00
11009;DHT22;5557;51.670;7.788;2023-04-10T14:50:02;19.10;1.00
11009;DHT22;5557;51.670;7.788;2023-04-10T14:52:30;19.10;1.00
11009;DHT22;5557;51.670;7.788;2023-04-10T14:54:57;18.90;1.00
11009;DHT22;5557;51.670;7.788;2023-04-10T14:57:24;18.60;1.00
11009;DHT22;5557;51.670;7.788;2023-04-10T14:59:51;18.50;1.00
11009;DHT22;5557;51.670;7.788;2023-04-10T15:02:19;18.50;1.00
11009;DHT22;5557;51.670;7.788;2023-04-10T15:04:46;18.50;1.00
11009;DHT22;5557;51.670;7.788;2023-04-10T15:07:14;18.50;1.00
11009;DHT22;5557;51.670;7.788;2023-04-10T15:09:41;18.60;1.00
11009;DHT22;5557;51.670;7.788;2023-04-10T15:12:10;18.60;1.00
11009;DHT22;5557;51.670;7.788;2023-04-10T15:14:37;18.60;1.00
11009;DHT22;5557;51.670;7.788;2023-04-10T15:17:04;18.50;1.00
11009;DHT22;5557;51.670;7.788;2023-04-10T15:19:31;18.40;1.00
11009;DHT22;5557;51.670;7.788;2023-04-10T15:21:58;18.20;1.00
11009;DHT22;5557;51.670;7.788;2023-04-10T15:24:25;18.20;1.00
11009;DHT22;5557;51.670;7.788;2023-04-10T15:26:54;18.10;1.00
11009;DHT22;5557;51.670;7.788;2023-04-10T15:29:23;18.10;1.00
11009;DHT22;5557;51.670;7.788;2023-04-10T15:31:50;18.10;1.00
11009;DHT22;5557;51.670;7.788;2023-04-10T15:34:18;18.10;1.00
11009;DHT22;5557;51.670;7.788;2023-04-10T15:36:46;18.00;1.00
11009;DHT22;5557;51.670;7.788;2023-04-10T15:39:13;18.00;1.00
11009;DHT22;5557;51.670;7.788;2023-04-10T15:41:40;17.90;1.00
11009;DHT22;5557;51.670;7.788;2023-04-10T15:44:07;17.80;1.00
11009;DHT22;5557;51.670;7.788;2023-04-10T15:46:34;17.80;1.00
11009;DHT22;5557;51.670;7.788;2023-04-10T15:49:03;17.80;1.00
11009;DHT22;5557;51.670;7.788;2023-04-10T15:51:30;17.80;1.00
11009;DHT22;5557;51.670;7.788;2023-04-10T15:53:57;17.80;1.00
11009;DHT22;5557;51.670;7.788;2023-04-10T15:56:24;17.80;1.00
11009;DHT22;5557;51.670;7.788;2023-04-10T15:58:51;17.70;1.00
11009;DHT22;5557;51.670;7.788;2023-04-10T16:01:18;17.70;1.00
11009;DHT22;5557;51.670;7.788;2023-04-10T16:03:45;17.60;1.00
11009;DHT22;5557;51.670;7.788;2023-04-10T16:06:15;17.50;1.00
11009;DHT22;5557;51.670;7.788;2023-04-10T16:08:42;17.50;1.00
11009;DHT22;5557;51.670;7.788;2023-04-10T16:11:10;17.40;1.00
11009;DHT22;5557;51.670;7.788;2023-04-10T16:13:37;17.40;1.00
11009;DHT22;5557;51.670;7.788;2023-04-10T16:16:19;17.30;1.00
11009;DHT22;5557;51.670;7.788;2023-04-10T16:21:20;17.20;1.00
11009;DHT22;5557;51.670;7.788;2023-04-10T16:23:47;17.20;1.00
11009;DHT22;5557;51.670;7.788;2023-04-10T16:26:14;17.20;1.00
11009;DHT22;5557;51.670;7.788;2023-04-10T16:28:42;17.10;1.00
11009;DHT22;5557;51.670;7.788;2023-04-10T16:31:10;17.10;1.00
11009;DHT22;5557;51.670;7.788;2023-04-10T16:33:38;17.10;1.00
11009;DHT22;5557;51.670;7.788;2023-04-10T16:36:06;17.10;1.00
11009;DHT22;5557;51.670;7.788;2023-04-10T16:38:34;17.00;1.00
11009;DHT22;5557;51.670;7.788;2023-04-10T16:41:03;17.00;1.00
11009;DHT22;5557;51.670;7.788;2023-04-10T16:43:31;17.00;1.00
11009;DHT22;5557;51.670;7.788;2023-04-10T16:45:59;16.90;1.00
11009;DHT22;5557;51.670;7.788;2023-04-10T16:48:28;16.90;1.00